sensor_id;sensor_type;location;lat;lon;timestamp;pressure;altitude;pressure_sealevel;temperature;humidity
75089;BME280;63673;49.928;8.150;2022-10-13T00:00:58;996.43;;;7.91;100
75089;BME280;63673;49.928;8.150;2022-10-13T00:02:00;996.48;;;7.93;100
75089;BME280;63673;49.928;8.150;2022-10-13T00:03:02;996.46;;;7.94;100
75089;BME280;63673;49.928;8.150;2022-10-13T00:04:03;996.46;;;7.94;100
75089;BME280;63673;49.928;8.150;2022-10-13T00:05:05;996.45;;;7.96;100
75089;BME280;63673;49.928;8.150;2022-10-13T00:06:08;996.48;;;7.97;100
75089;BME280;63673;49.928;8.150;2022-10-13T00:07:09;996.48;;;7.99;100
75089;BME280;63673;49.928;8.150;2022-10-13T00:08:11;996.47;;;8;100
75089;BME280;63673;49.928;8.150;2022-10-13T00:09:12;996.41;;;8.01;100
75089;BME280;63673;49.928;8.150;2022-10-13T00:10:14;996.44;;;8.02;100
75089;BME280;63673;49.928;8.150;2022-10-13T00:11:16;996.43;;;8.02;100
75089;BME280;63673;49.928;8.150;2022-10-13T00:12:17;996.41;;;8.02;100
75089;BME280;63673;49.928;8.150;2022-10-13T00:13:19;996.4;;;8.03;100
75089;BME280;63673;49.928;8.150;2022-10-13T00:14:21;996.34;;;8.03;100
75089;BME280;63673;49.928;8.150;2022-10-13T00:15:22;996.39;;;8.03;100
75089;BME280;63673;49.928;8.150;2022-10-13T00:16:24;996.41;;;8.03;100
75089;BME280;63673;49.928;8.150;2022-10-13T00:17:26;996.38;;;8.03;100
75089;BME280;63673;49.928;8.150;2022-10-13T00:18:27;996.42;;;8.02;100
75089;BME280;63673;49.928;8.150;2022-10-13T00:19:29;996.41;;;8.02;100
75089;BME280;63673;49.928;8.150;2022-10-13T00:20:31;996.41;;;7.99;100
75089;BME280;63673;49.928;8.150;2022-10-13T00:21:33;996.39;;;7.98;100
75089;BME280;63673;49.928;8.150;2022-10-13T00:22:34;996.44;;;7.97;100
75089;BME280;63673;49.928;8.150;2022-10-13T00:23:36;996.43;;;7.96;100
75089;BME280;63673;49.928;8.150;2022-10-13T00:24:38;996.45;;;7.94;100
75089;BME280;63673;49.928;8.150;2022-10-13T00:25:40;996.47;;;7.93;100
75089;BME280;63673;49.928;8.150;2022-10-13T00:26:41;996.48;;;7.93;100
75089;BME280;63673;49.928;8.150;2022-10-13T00:27:43;996.53;;;7.91;100
75089;BME280;63673;49.928;8.150;2022-10-13T00:28:46;996.5;;;7.9;100
75089;BME280;63673;49.928;8.150;2022-10-13T00:29:46;996.5;;;7.87;100
75089;BME280;63673;49.928;8.150;2022-10-13T00:30:48;996.51;;;7.85;100
75089;BME280;63673;49.928;8.150;2022-10-13T00:31:50;996.45;;;7.84;100
75089;BME280;63673;49.928;8.150;2022-10-13T00:32:52;996.45;;;7.82;100
75089;BME280;63673;49.928;8.150;2022-10-13T00:33:53;996.44;;;7.8;100
75089;BME280;63673;49.928;8.150;2022-10-13T00:34:55;996.48;;;7.8;100
75089;BME280;63673;49.928;8.150;2022-10-13T00:35:57;996.39;;;7.78;100
75089;BME280;63673;49.928;8.150;2022-10-13T00:36:58;996.47;;;7.77;100
75089;BME280;63673;49.928;8.150;2022-10-13T00:38:00;996.45;;;7.77;100
75089;BME280;63673;49.928;8.150;2022-10-13T00:39:02;996.38;;;7.75;100
75089;BME280;63673;49.928;8.150;2022-10-13T00:40:04;996.41;;;7.74;100
75089;BME280;63673;49.928;8.150;2022-10-13T00:41:06;996.4;;;7.74;100
75089;BME280;63673;49.928;8.150;2022-10-13T00:42:09;996.39;;;7.73;100
75089;BME280;63673;49.928;8.150;2022-10-13T00:43:12;996.37;;;7.72;100
75089;BME280;63673;49.928;8.150;2022-10-13T00:44:55;996.37;;;7.72;100
75089;BME280;63673;49.928;8.150;2022-10-13T00:45:19;996.35;;;7.71;100
75089;BME280;63673;49.928;8.150;2022-10-13T00:46:14;996.32;;;7.71;100
75089;BME280;63673;49.928;8.150;2022-10-13T00:47:16;996.32;;;7.71;100
75089;BME280;63673;49.928;8.150;2022-10-13T00:48:18;996.27;;;7.71;100
75089;BME280;63673;49.928;8.150;2022-10-13T00:49:19;996.28;;;7.7;100
75089;BME280;63673;49.928;8.150;2022-10-13T00:50:21;996.25;;;7.69;100
75089;BME280;63673;49.928;8.150;2022-10-13T00:51:24;996.26;;;7.68;100
75089;BME280;63673;49.928;8.150;2022-10-13T00:52:24;996.25;;;7.67;100
75089;BME280;63673;49.928;8.150;2022-10-13T00:53:29;996.28;;;7.65;100
75089;BME280;63673;49.928;8.150;2022-10-13T00:54:28;996.24;;;7.65;100
75089;BME280;63673;49.928;8.150;2022-10-13T00:55:30;996.3;;;7.63;100
75089;BME280;63673;49.928;8.150;2022-10-13T00:56:31;996.27;;;7.63;100
75089;BME280;63673;49.928;8.150;2022-10-13T00:57:33;996.28;;;7.62;100
75089;BME280;63673;49.928;8.150;2022-10-13T00:58:35;996.29;;;7.61;100
75089;BME280;63673;49.928;8.150;2022-10-13T00:59:36;996.25;;;7.61;100
75089;BME280;63673;49.928;8.150;2022-10-13T01:00:38;996.28;;;7.61;100
75089;BME280;63673;49.928;8.150;2022-10-13T01:01:40;996.27;;;7.6;100
75089;BME280;63673;49.928;8.150;2022-10-13T01:02:42;996.23;;;7.6;100
75089;BME280;63673;49.928;8.150;2022-10-13T01:03:43;996.24;;;7.61;100
75089;BME280;63673;49.928;8.150;2022-10-13T01:04:45;996.28;;;7.6;100
75089;BME280;63673;49.928;8.150;2022-10-13T01:05:47;996.28;;;7.59;100
75089;BME280;63673;49.928;8.150;2022-10-13T01:06:49;996.29;;;7.58;100
75089;BME280;63673;49.928;8.150;2022-10-13T01:07:50;996.29;;;7.59;100
75089;BME280;63673;49.928;8.150;2022-10-13T01:08:52;996.3;;;7.59;100
75089;BME280;63673;49.928;8.150;2022-10-13T01:09:54;996.26;;;7.59;100
75089;BME280;63673;49.928;8.150;2022-10-13T01:10:57;996.29;;;7.59;100
75089;BME280;63673;49.928;8.150;2022-10-13T01:11:59;996.27;;;7.6;100
75089;BME280;63673;49.928;8.150;2022-10-13T01:12:59;996.21;;;7.61;100
75089;BME280;63673;49.928;8.150;2022-10-13T01:14:02;996.2;;;7.62;100
75089;BME280;63673;49.928;8.150;2022-10-13T01:15:05;996.23;;;7.63;100
75089;BME280;63673;49.928;8.150;2022-10-13T01:16:06;996.22;;;7.65;100
75089;BME280;63673;49.928;8.150;2022-10-13T01:17:13;996.25;;;7.65;100
75089;BME280;63673;49.928;8.150;2022-10-13T01:18:14;996.27;;;7.67;100
75089;BME280;63673;49.928;8.150;2022-10-13T01:19:19;996.29;;;7.68;100
75089;BME280;63673;49.928;8.150;2022-10-13T01:20:49;996.24;;;7.69;100
75089;BME280;63673;49.928;8.150;2022-10-13T01:21:19;996.25;;;7.7;100
75089;BME280;63673;49.928;8.150;2022-10-13T01:22:23;996.26;;;7.72;100
75089;BME280;63673;49.928;8.150;2022-10-13T01:23:25;996.27;;;7.73;100
75089;BME280;63673;49.928;8.150;2022-10-13T01:24:28;996.3;;;7.75;100
75089;BME280;63673;49.928;8.150;2022-10-13T01:25:28;996.32;;;7.77;100
75089;BME280;63673;49.928;8.150;2022-10-13T01:26:49;996.3;;;7.78;100
75089;BME280;63673;49.928;8.150;2022-10-13T01:27:33;996.31;;;7.8;100
75089;BME280;63673;49.928;8.150;2022-10-13T01:28:32;996.28;;;7.82;100
75089;BME280;63673;49.928;8.150;2022-10-13T01:29:50;996.27;;;7.84;100
75089;BME280;63673;49.928;8.150;2022-10-13T01:30:34;996.3;;;7.85;100
75089;BME280;63673;49.928;8.150;2022-10-13T01:31:36;996.21;;;7.86;100
75089;BME280;63673;49.928;8.150;2022-10-13T01:32:41;996.25;;;7.88;100
75089;BME280;63673;49.928;8.150;2022-10-13T01:33:40;996.29;;;7.9;100
75089;BME280;63673;49.928;8.150;2022-10-13T01:34:42;996.24;;;7.92;100
75089;BME280;63673;49.928;8.150;2022-10-13T01:35:46;996.24;;;7.94;100
75089;BME280;63673;49.928;8.150;2022-10-13T01:36:46;996.22;;;7.96;100
75089;BME280;63673;49.928;8.150;2022-10-13T01:37:46;996.21;;;7.98;100
75089;BME280;63673;49.928;8.150;2022-10-13T01:38:50;996.17;;;8;100
75089;BME280;63673;49.928;8.150;2022-10-13T01:39:50;996.2;;;8.03;100
75089;BME280;63673;49.928;8.150;2022-10-13T01:40:53;996.15;;;8.04;100
75089;BME280;63673;49.928;8.150;2022-10-13T01:41:53;996.08;;;8.06;100
75089;BME280;63673;49.928;8.150;2022-10-13T01:42:55;996.09;;;8.09;100
75089;BME280;63673;49.928;8.150;2022-10-13T01:43:56;996.1;;;8.1;100
75089;BME280;63673;49.928;8.150;2022-10-13T01:44:59;996.07;;;8.11;100
75089;BME280;63673;49.928;8.150;2022-10-13T01:46:00;996.12;;;8.13;100
75089;BME280;63673;49.928;8.150;2022-10-13T01:47:01;996.11;;;8.15;100
75089;BME280;63673;49.928;8.150;2022-10-13T01:48:03;996.13;;;8.16;100
75089;BME280;63673;49.928;8.150;2022-10-13T01:49:06;996.11;;;8.16;100
75089;BME280;63673;49.928;8.150;2022-10-13T01:50:06;996.11;;;8.17;100
75089;BME280;63673;49.928;8.150;2022-10-13T01:51:09;996.06;;;8.18;100
75089;BME280;63673;49.928;8.150;2022-10-13T01:52:11;996.09;;;8.18;100
75089;BME280;63673;49.928;8.150;2022-10-13T01:53:11;996.15;;;8.18;100
75089;BME280;63673;49.928;8.150;2022-10-13T01:54:13;996.13;;;8.19;100
75089;BME280;63673;49.928;8.150;2022-10-13T01:55:15;996.13;;;8.18;100
75089;BME280;63673;49.928;8.150;2022-10-13T01:56:17;996.15;;;8.18;100
75089;BME280;63673;49.928;8.150;2022-10-13T01:57:29;996.1;;;8.18;100
75089;BME280;63673;49.928;8.150;2022-10-13T01:58:20;996.17;;;8.18;100
75089;BME280;63673;49.928;8.150;2022-10-13T01:59:22;996.09;;;8.18;100
75089;BME280;63673;49.928;8.150;2022-10-13T02:00:24;996.08;;;8.18;100
75089;BME280;63673;49.928;8.150;2022-10-13T02:01:30;996.14;;;8.18;100
75089;BME280;63673;49.928;8.150;2022-10-13T02:02:28;996.04;;;8.19;100
75089;BME280;63673;49.928;8.150;2022-10-13T02:03:31;996.07;;;8.19;100
75089;BME280;63673;49.928;8.150;2022-10-13T02:04:35;996;;;8.19;100
75089;BME280;63673;49.928;8.150;2022-10-13T02:05:35;996.06;;;8.19;100
75089;BME280;63673;49.928;8.150;2022-10-13T02:06:36;996.03;;;8.19;100
75089;BME280;63673;49.928;8.150;2022-10-13T02:07:37;996.08;;;8.2;100
75089;BME280;63673;49.928;8.150;2022-10-13T02:08:38;996.05;;;8.2;100
75089;BME280;63673;49.928;8.150;2022-10-13T02:09:40;996.04;;;8.21;100
75089;BME280;63673;49.928;8.150;2022-10-13T02:10:43;996.01;;;8.21;100
75089;BME280;63673;49.928;8.150;2022-10-13T02:11:43;996.02;;;8.21;100
75089;BME280;63673;49.928;8.150;2022-10-13T02:12:45;996.02;;;8.22;100
75089;BME280;63673;49.928;8.150;2022-10-13T02:13:49;995.96;;;8.23;100
75089;BME280;63673;49.928;8.150;2022-10-13T02:14:48;995.98;;;8.23;100
75089;BME280;63673;49.928;8.150;2022-10-13T02:15:50;995.97;;;8.24;100
75089;BME280;63673;49.928;8.150;2022-10-13T02:16:52;995.96;;;8.24;100
75089;BME280;63673;49.928;8.150;2022-10-13T02:17:53;995.91;;;8.25;100
75089;BME280;63673;49.928;8.150;2022-10-13T02:18:55;995.92;;;8.25;100
75089;BME280;63673;49.928;8.150;2022-10-13T02:19:57;995.91;;;8.26;100
75089;BME280;63673;49.928;8.150;2022-10-13T02:20:58;995.91;;;8.26;100
75089;BME280;63673;49.928;8.150;2022-10-13T02:22:00;995.86;;;8.26;100
75089;BME280;63673;49.928;8.150;2022-10-13T02:23:03;995.89;;;8.27;100
75089;BME280;63673;49.928;8.150;2022-10-13T02:24:04;995.88;;;8.26;100
75089;BME280;63673;49.928;8.150;2022-10-13T02:25:06;995.89;;;8.26;100
75089;BME280;63673;49.928;8.150;2022-10-13T02:26:07;995.93;;;8.25;100
75089;BME280;63673;49.928;8.150;2022-10-13T02:27:09;995.88;;;8.25;100
75089;BME280;63673;49.928;8.150;2022-10-13T02:28:11;995.94;;;8.24;100
75089;BME280;63673;49.928;8.150;2022-10-13T02:29:13;995.89;;;8.24;100
75089;BME280;63673;49.928;8.150;2022-10-13T02:30:18;995.84;;;8.23;100
75089;BME280;63673;49.928;8.150;2022-10-13T02:31:16;995.84;;;8.23;100
75089;BME280;63673;49.928;8.150;2022-10-13T02:32:18;995.79;;;8.22;100
75089;BME280;63673;49.928;8.150;2022-10-13T02:33:19;995.78;;;8.22;100
75089;BME280;63673;49.928;8.150;2022-10-13T02:34:21;995.81;;;8.22;100
75089;BME280;63673;49.928;8.150;2022-10-13T02:35:24;995.81;;;8.22;100
75089;BME280;63673;49.928;8.150;2022-10-13T02:36:25;995.79;;;8.22;100
75089;BME280;63673;49.928;8.150;2022-10-13T02:37:26;995.8;;;8.22;100
75089;BME280;63673;49.928;8.150;2022-10-13T02:38:28;995.72;;;8.22;100
75089;BME280;63673;49.928;8.150;2022-10-13T02:39:30;995.78;;;8.22;100
75089;BME280;63673;49.928;8.150;2022-10-13T02:40:31;995.78;;;8.22;100
75089;BME280;63673;49.928;8.150;2022-10-13T02:41:33;995.77;;;8.21;100
75089;BME280;63673;49.928;8.150;2022-10-13T02:42:35;995.78;;;8.21;100
75089;BME280;63673;49.928;8.150;2022-10-13T02:43:36;995.81;;;8.22;100
75089;BME280;63673;49.928;8.150;2022-10-13T02:44:38;995.8;;;8.22;100
75089;BME280;63673;49.928;8.150;2022-10-13T02:45:40;995.85;;;8.22;100
75089;BME280;63673;49.928;8.150;2022-10-13T02:46:42;995.83;;;8.21;100
75089;BME280;63673;49.928;8.150;2022-10-13T02:47:43;995.87;;;8.22;100
75089;BME280;63673;49.928;8.150;2022-10-13T02:48:45;995.84;;;8.21;100
75089;BME280;63673;49.928;8.150;2022-10-13T02:49:47;995.88;;;8.21;100
75089;BME280;63673;49.928;8.150;2022-10-13T02:50:49;995.86;;;8.21;100
75089;BME280;63673;49.928;8.150;2022-10-13T02:51:50;995.83;;;8.2;100
75089;BME280;63673;49.928;8.150;2022-10-13T02:52:52;995.85;;;8.2;100
75089;BME280;63673;49.928;8.150;2022-10-13T02:53:54;995.79;;;8.2;100
75089;BME280;63673;49.928;8.150;2022-10-13T02:54:56;995.8;;;8.2;100
75089;BME280;63673;49.928;8.150;2022-10-13T02:55:57;995.81;;;8.2;100
75089;BME280;63673;49.928;8.150;2022-10-13T02:56:59;995.79;;;8.2;100
75089;BME280;63673;49.928;8.150;2022-10-13T02:58:01;995.78;;;8.22;100
75089;BME280;63673;49.928;8.150;2022-10-13T02:59:03;995.79;;;8.22;100
75089;BME280;63673;49.928;8.150;2022-10-13T03:00:05;995.82;;;8.23;100
75089;BME280;63673;49.928;8.150;2022-10-13T03:01:06;995.74;;;8.24;100
75089;BME280;63673;49.928;8.150;2022-10-13T03:02:08;995.8;;;8.24;100
75089;BME280;63673;49.928;8.150;2022-10-13T03:03:10;995.74;;;8.25;100
75089;BME280;63673;49.928;8.150;2022-10-13T03:04:11;995.76;;;8.26;100
75089;BME280;63673;49.928;8.150;2022-10-13T03:05:13;995.8;;;8.28;100
75089;BME280;63673;49.928;8.150;2022-10-13T03:06:15;995.68;;;8.3;100
75089;BME280;63673;49.928;8.150;2022-10-13T03:07:16;995.73;;;8.3;100
75089;BME280;63673;49.928;8.150;2022-10-13T03:08:18;995.71;;;8.32;100
75089;BME280;63673;49.928;8.150;2022-10-13T03:09:20;995.68;;;8.33;100
75089;BME280;63673;49.928;8.150;2022-10-13T03:10:22;995.7;;;8.34;100
75089;BME280;63673;49.928;8.150;2022-10-13T03:11:23;995.71;;;8.35;100
75089;BME280;63673;49.928;8.150;2022-10-13T03:12:25;995.64;;;8.36;100
75089;BME280;63673;49.928;8.150;2022-10-13T03:13:27;995.62;;;8.37;100
75089;BME280;63673;49.928;8.150;2022-10-13T03:14:29;995.64;;;8.38;100
75089;BME280;63673;49.928;8.150;2022-10-13T03:15:30;995.59;;;8.39;100
75089;BME280;63673;49.928;8.150;2022-10-13T03:16:32;995.51;;;8.4;100
75089;BME280;63673;49.928;8.150;2022-10-13T03:17:34;995.5;;;8.41;100
75089;BME280;63673;49.928;8.150;2022-10-13T03:18:35;995.49;;;8.42;100
75089;BME280;63673;49.928;8.150;2022-10-13T03:19:37;995.45;;;8.43;100
75089;BME280;63673;49.928;8.150;2022-10-13T03:20:39;995.48;;;8.44;100
75089;BME280;63673;49.928;8.150;2022-10-13T03:21:41;995.48;;;8.45;100
75089;BME280;63673;49.928;8.150;2022-10-13T03:22:42;995.48;;;8.45;100
75089;BME280;63673;49.928;8.150;2022-10-13T03:23:44;995.6;;;8.46;100
75089;BME280;63673;49.928;8.150;2022-10-13T03:24:46;995.51;;;8.47;100
75089;BME280;63673;49.928;8.150;2022-10-13T03:25:48;995.48;;;8.47;100
75089;BME280;63673;49.928;8.150;2022-10-13T03:26:49;995.51;;;8.47;100
75089;BME280;63673;49.928;8.150;2022-10-13T03:27:51;995.51;;;8.48;100
75089;BME280;63673;49.928;8.150;2022-10-13T03:28:53;995.49;;;8.47;100
75089;BME280;63673;49.928;8.150;2022-10-13T03:29:55;995.46;;;8.47;100
75089;BME280;63673;49.928;8.150;2022-10-13T03:31:00;995.48;;;8.48;100
75089;BME280;63673;49.928;8.150;2022-10-13T03:31:58;995.46;;;8.48;100
75089;BME280;63673;49.928;8.150;2022-10-13T03:33:00;995.5;;;8.48;100
75089;BME280;63673;49.928;8.150;2022-10-13T03:34:01;995.48;;;8.48;100
75089;BME280;63673;49.928;8.150;2022-10-13T03:35:03;995.53;;;8.49;100
75089;BME280;63673;49.928;8.150;2022-10-13T03:36:05;995.54;;;8.48;100
75089;BME280;63673;49.928;8.150;2022-10-13T03:37:07;995.51;;;8.48;100
75089;BME280;63673;49.928;8.150;2022-10-13T03:38:09;995.47;;;8.48;100
75089;BME280;63673;49.928;8.150;2022-10-13T03:39:10;995.52;;;8.48;100
75089;BME280;63673;49.928;8.150;2022-10-13T03:40:12;995.47;;;8.48;100
75089;BME280;63673;49.928;8.150;2022-10-13T03:41:15;995.54;;;8.48;100
75089;BME280;63673;49.928;8.150;2022-10-13T03:42:15;995.51;;;8.48;100
75089;BME280;63673;49.928;8.150;2022-10-13T03:43:17;995.54;;;8.48;100
75089;BME280;63673;49.928;8.150;2022-10-13T03:44:19;995.56;;;8.48;100
75089;BME280;63673;49.928;8.150;2022-10-13T03:45:21;995.61;;;8.47;100
75089;BME280;63673;49.928;8.150;2022-10-13T03:46:23;995.62;;;8.47;100
75089;BME280;63673;49.928;8.150;2022-10-13T03:47:24;995.6;;;8.47;100
75089;BME280;63673;49.928;8.150;2022-10-13T03:48:26;995.58;;;8.48;100
75089;BME280;63673;49.928;8.150;2022-10-13T03:49:28;995.57;;;8.47;100
75089;BME280;63673;49.928;8.150;2022-10-13T03:50:29;995.58;;;8.47;100
75089;BME280;63673;49.928;8.150;2022-10-13T03:51:31;995.58;;;8.47;100
75089;BME280;63673;49.928;8.150;2022-10-13T03:52:33;995.56;;;8.47;100
75089;BME280;63673;49.928;8.150;2022-10-13T03:53:35;995.57;;;8.47;100
75089;BME280;63673;49.928;8.150;2022-10-13T03:54:36;995.56;;;8.47;100
75089;BME280;63673;49.928;8.150;2022-10-13T03:55:38;995.54;;;8.46;100
75089;BME280;63673;49.928;8.150;2022-10-13T03:56:40;995.53;;;8.46;100
75089;BME280;63673;49.928;8.150;2022-10-13T03:57:41;995.59;;;8.45;100
75089;BME280;63673;49.928;8.150;2022-10-13T03:58:43;995.58;;;8.45;100
75089;BME280;63673;49.928;8.150;2022-10-13T03:59:45;995.58;;;8.45;100
75089;BME280;63673;49.928;8.150;2022-10-13T04:00:47;995.56;;;8.44;100
75089;BME280;63673;49.928;8.150;2022-10-13T04:01:48;995.57;;;8.44;100
75089;BME280;63673;49.928;8.150;2022-10-13T04:02:50;995.62;;;8.44;100
75089;BME280;63673;49.928;8.150;2022-10-13T04:03:52;995.58;;;8.43;100
75089;BME280;63673;49.928;8.150;2022-10-13T04:04:53;995.57;;;8.43;100
75089;BME280;63673;49.928;8.150;2022-10-13T04:05:58;995.58;;;8.42;100
75089;BME280;63673;49.928;8.150;2022-10-13T04:06:57;995.56;;;8.43;100
75089;BME280;63673;49.928;8.150;2022-10-13T04:07:59;995.59;;;8.42;100
75089;BME280;63673;49.928;8.150;2022-10-13T04:09:00;995.54;;;8.43;100
75089;BME280;63673;49.928;8.150;2022-10-13T04:10:02;995.55;;;8.43;100
75089;BME280;63673;49.928;8.150;2022-10-13T04:11:05;995.58;;;8.42;100
75089;BME280;63673;49.928;8.150;2022-10-13T04:12:06;995.58;;;8.43;100
75089;BME280;63673;49.928;8.150;2022-10-13T04:13:07;995.52;;;8.43;100
75089;BME280;63673;49.928;8.150;2022-10-13T04:14:09;995.55;;;8.43;100
75089;BME280;63673;49.928;8.150;2022-10-13T04:15:11;995.61;;;8.43;100
75089;BME280;63673;49.928;8.150;2022-10-13T04:16:13;995.54;;;8.43;100
75089;BME280;63673;49.928;8.150;2022-10-13T04:17:14;995.49;;;8.43;100
75089;BME280;63673;49.928;8.150;2022-10-13T04:18:16;995.59;;;8.43;100
75089;BME280;63673;49.928;8.150;2022-10-13T04:19:18;995.58;;;8.42;100
75089;BME280;63673;49.928;8.150;2022-10-13T04:20:20;995.57;;;8.42;100
75089;BME280;63673;49.928;8.150;2022-10-13T04:21:22;995.6;;;8.43;100
75089;BME280;63673;49.928;8.150;2022-10-13T04:22:23;995.58;;;8.41;100
75089;BME280;63673;49.928;8.150;2022-10-13T04:23:25;995.59;;;8.42;100
75089;BME280;63673;49.928;8.150;2022-10-13T04:24:29;995.59;;;8.41;100
75089;BME280;63673;49.928;8.150;2022-10-13T04:25:28;995.63;;;8.41;100
75089;BME280;63673;49.928;8.150;2022-10-13T04:26:31;995.54;;;8.41;100
75089;BME280;63673;49.928;8.150;2022-10-13T04:27:32;995.58;;;8.42;100
75089;BME280;63673;49.928;8.150;2022-10-13T04:28:33;995.57;;;8.41;100
75089;BME280;63673;49.928;8.150;2022-10-13T04:29:35;995.59;;;8.42;100
75089;BME280;63673;49.928;8.150;2022-10-13T04:30:37;995.55;;;8.42;100
75089;BME280;63673;49.928;8.150;2022-10-13T04:31:39;995.55;;;8.42;100
75089;BME280;63673;49.928;8.150;2022-10-13T04:32:40;995.54;;;8.43;100
75089;BME280;63673;49.928;8.150;2022-10-13T04:33:43;995.52;;;8.43;100
75089;BME280;63673;49.928;8.150;2022-10-13T04:34:44;995.58;;;8.45;100
75089;BME280;63673;49.928;8.150;2022-10-13T04:35:46;995.63;;;8.46;100
75089;BME280;63673;49.928;8.150;2022-10-13T04:36:48;995.63;;;8.46;100
75089;BME280;63673;49.928;8.150;2022-10-13T04:37:49;995.62;;;8.47;100
75089;BME280;63673;49.928;8.150;2022-10-13T04:38:52;995.57;;;8.48;100
75089;BME280;63673;49.928;8.150;2022-10-13T04:39:52;995.59;;;8.49;100
75089;BME280;63673;49.928;8.150;2022-10-13T04:40:54;995.56;;;8.5;100
75089;BME280;63673;49.928;8.150;2022-10-13T04:41:56;995.6;;;8.51;100
75089;BME280;63673;49.928;8.150;2022-10-13T04:42:58;995.6;;;8.54;100
75089;BME280;63673;49.928;8.150;2022-10-13T04:43:59;995.57;;;8.54;100
75089;BME280;63673;49.928;8.150;2022-10-13T04:45:01;995.56;;;8.56;100
75089;BME280;63673;49.928;8.150;2022-10-13T04:46:04;995.53;;;8.58;100
75089;BME280;63673;49.928;8.150;2022-10-13T04:47:05;995.52;;;8.59;100
75089;BME280;63673;49.928;8.150;2022-10-13T04:48:06;995.5;;;8.59;100
75089;BME280;63673;49.928;8.150;2022-10-13T04:49:08;995.5;;;8.59;100
75089;BME280;63673;49.928;8.150;2022-10-13T04:50:10;995.47;;;8.6;100
75089;BME280;63673;49.928;8.150;2022-10-13T04:51:12;995.44;;;8.61;100
75089;BME280;63673;49.928;8.150;2022-10-13T04:52:13;995.52;;;8.62;100
75089;BME280;63673;49.928;8.150;2022-10-13T04:53:15;995.47;;;8.63;100
75089;BME280;63673;49.928;8.150;2022-10-13T04:54:17;995.49;;;8.63;100
75089;BME280;63673;49.928;8.150;2022-10-13T04:55:19;995.47;;;8.64;100
75089;BME280;63673;49.928;8.150;2022-10-13T04:56:20;995.44;;;8.65;100
75089;BME280;63673;49.928;8.150;2022-10-13T04:57:22;995.41;;;8.65;100
75089;BME280;63673;49.928;8.150;2022-10-13T04:58:24;995.36;;;8.65;100
75089;BME280;63673;49.928;8.150;2022-10-13T04:59:25;995.34;;;8.65;100
75089;BME280;63673;49.928;8.150;2022-10-13T05:00:27;995.24;;;8.65;100
75089;BME280;63673;49.928;8.150;2022-10-13T05:01:29;995.24;;;8.63;100
75089;BME280;63673;49.928;8.150;2022-10-13T05:02:31;995.12;;;8.61;100
75089;BME280;63673;49.928;8.150;2022-10-13T05:03:33;995.15;;;8.6;100
75089;BME280;63673;49.928;8.150;2022-10-13T05:04:34;995.11;;;8.57;100
75089;BME280;63673;49.928;8.150;2022-10-13T05:05:36;995.04;;;8.53;100
75089;BME280;63673;49.928;8.150;2022-10-13T05:06:38;994.94;;;8.47;100
75089;BME280;63673;49.928;8.150;2022-10-13T05:07:39;994.95;;;8.47;100
75089;BME280;63673;49.928;8.150;2022-10-13T05:08:41;994.99;;;8.44;100
75089;BME280;63673;49.928;8.150;2022-10-13T05:09:43;994.96;;;8.4;100
75089;BME280;63673;49.928;8.150;2022-10-13T05:10:51;994.9;;;8.39;100
75089;BME280;63673;49.928;8.150;2022-10-13T05:11:46;994.98;;;8.37;100
75089;BME280;63673;49.928;8.150;2022-10-13T05:12:48;994.93;;;8.34;100
75089;BME280;63673;49.928;8.150;2022-10-13T05:13:50;994.87;;;8.31;100
75089;BME280;63673;49.928;8.150;2022-10-13T05:14:51;994.96;;;8.29;100
75089;BME280;63673;49.928;8.150;2022-10-13T05:15:53;994.96;;;8.26;100
75089;BME280;63673;49.928;8.150;2022-10-13T05:16:55;994.97;;;8.25;100
75089;BME280;63673;49.928;8.150;2022-10-13T05:17:57;994.94;;;8.23;100
75089;BME280;63673;49.928;8.150;2022-10-13T05:18:58;994.96;;;8.21;100
75089;BME280;63673;49.928;8.150;2022-10-13T05:20:00;994.97;;;8.2;100
75089;BME280;63673;49.928;8.150;2022-10-13T05:21:06;995.01;;;8.18;100
75089;BME280;63673;49.928;8.150;2022-10-13T05:22:04;995.03;;;8.17;100
75089;BME280;63673;49.928;8.150;2022-10-13T05:23:05;995.02;;;8.16;100
75089;BME280;63673;49.928;8.150;2022-10-13T05:24:07;995.02;;;8.15;100
75089;BME280;63673;49.928;8.150;2022-10-13T05:25:09;995.03;;;8.13;100
75089;BME280;63673;49.928;8.150;2022-10-13T05:26:11;995;;;8.13;100
75089;BME280;63673;49.928;8.150;2022-10-13T05:27:12;994.97;;;8.12;100
75089;BME280;63673;49.928;8.150;2022-10-13T05:28:14;995.01;;;8.12;100
75089;BME280;63673;49.928;8.150;2022-10-13T05:29:16;994.97;;;8.13;100
75089;BME280;63673;49.928;8.150;2022-10-13T05:30:17;994.96;;;8.12;100
75089;BME280;63673;49.928;8.150;2022-10-13T05:31:20;994.97;;;8.12;100
75089;BME280;63673;49.928;8.150;2022-10-13T05:32:21;994.98;;;8.13;100
75089;BME280;63673;49.928;8.150;2022-10-13T05:33:23;994.99;;;8.13;100
75089;BME280;63673;49.928;8.150;2022-10-13T05:34:25;994.97;;;8.14;100
75089;BME280;63673;49.928;8.150;2022-10-13T05:35:26;994.99;;;8.13;100
75089;BME280;63673;49.928;8.150;2022-10-13T05:36:29;994.99;;;8.13;100
75089;BME280;63673;49.928;8.150;2022-10-13T05:37:30;994.97;;;8.13;100
75089;BME280;63673;49.928;8.150;2022-10-13T05:38:31;995.05;;;8.13;100
75089;BME280;63673;49.928;8.150;2022-10-13T05:39:33;995.04;;;8.12;100
75089;BME280;63673;49.928;8.150;2022-10-13T05:40:35;995.06;;;8.13;100
75089;BME280;63673;49.928;8.150;2022-10-13T05:41:37;995.12;;;8.13;100
75089;BME280;63673;49.928;8.150;2022-10-13T05:42:38;995.19;;;8.13;100
75089;BME280;63673;49.928;8.150;2022-10-13T05:43:40;995.15;;;8.11;100
75089;BME280;63673;49.928;8.150;2022-10-13T05:44:42;995.2;;;8.11;100
75089;BME280;63673;49.928;8.150;2022-10-13T05:45:44;995.17;;;8.11;100
75089;BME280;63673;49.928;8.150;2022-10-13T05:46:45;995.24;;;8.1;100
75089;BME280;63673;49.928;8.150;2022-10-13T05:47:47;995.22;;;8.1;100
75089;BME280;63673;49.928;8.150;2022-10-13T05:48:49;995.31;;;8.1;100
75089;BME280;63673;49.928;8.150;2022-10-13T05:49:50;995.26;;;8.09;100
75089;BME280;63673;49.928;8.150;2022-10-13T05:50:52;995.28;;;8.08;100
75089;BME280;63673;49.928;8.150;2022-10-13T05:51:55;995.32;;;8.08;100